Time;durP1;ratioP1;P1;durP2;ratioP2;P2;SDS_P1;SDS_P2;PMS_P1;PMS_P2;Temp;Humidity;BMP_temperature;BMP_pressure;BME280_temperature;BME280_humidity;BME280_pressure;Samples;Min_cycle;Max_cycle;Signal;HPM_P1;HPM_P2
2023/02/02 00:01:25;;;;;;;;;;;;;;;17.77;67.55;100086.61;2258334;77;51021;-73
2023/02/02 00:04:27;;;;;;;;;;;;;;;17.80;67.36;100078.22;2272775;77;51623;-73
2023/02/02 00:07:29;;;;;;;;;;;;;;;17.79;67.40;100087.25;2268640;77;50425;-73
2023/02/02 00:10:30;;;;;;;;;;;;;;;17.77;67.49;100070.55;2266689;78;50266;-73
2023/02/02 00:13:32;;;;;;;;;;;;;;;17.73;67.70;100083.50;2269014;78;51298;-73
2023/02/02 00:16:35;;;;;;;;;;;;;;;17.70;67.84;100065.64;2270958;77;51445;-73
2023/02/02 00:19:36;;;;;;;;;;;;;;;17.64;68.12;100056.02;2266744;78;50033;-73
2023/02/02 00:22:38;;;;;;;;;;;;;;;17.63;68.27;100066.94;2269110;78;50280;-73
2023/02/02 00:25:40;;;;;;;;;;;;;;;17.65;67.85;100060.89;2286321;77;50539;-73
2023/02/02 00:28:41;;;;;;;;;;;;;;;17.64;68.04;100081.44;2265810;77;50639;-73
2023/02/02 00:31:43;;;;;;;;;;;;;;;17.63;68.25;100077.63;2282724;77;51586;-73
2023/02/02 00:34:44;;;;;;;;;;;;;;;17.67;68.16;100063.36;2245670;78;50646;-73
2023/02/02 00:37:46;;;;;;;;;;;;;;;17.70;67.91;100060.29;2223452;78;52487;-73
2023/02/02 00:40:47;;;;;;;;;;;;;;;17.77;67.64;100070.55;2266909;78;51509;-73
2023/02/02 00:45:14;;;;;;;;;;;;;;;17.84;67.32;100057.58;2266648;77;50490;-73
2023/02/02 00:46:52;;;;;;;;;;;;;;;17.85;67.26;100062.42;2277292;77;22463;-73
2023/02/02 00:49:54;;;;;;;;;;;;;;;17.85;67.21;100049.04;2302835;77;52652;-74
2023/02/02 00:52:57;;;;;;;;;;;;;;;17.83;67.32;100051.10;2298711;77;51487;-73
2023/02/02 00:55:59;;;;;;;;;;;;;;;17.80;67.39;100059.49;2299102;77;22458;-73
2023/02/02 00:59:00;;;;;;;;;;;;;;;17.76;67.61;100048.33;2266838;77;50689;-73
2023/02/02 01:02:02;;;;;;;;;;;;;;;17.70;67.90;100063.82;2247419;78;52552;-73
2023/02/02 01:05:03;;;;;;;;;;;;;;;17.67;68.09;100060.68;2261473;78;51513;-73
2023/02/02 01:08:06;;;;;;;;;;;;;;;17.66;68.08;100063.05;2246361;77;51529;-73
2023/02/02 01:11:08;;;;;;;;;;;;;;;17.63;68.26;100078.45;2258880;78;51423;-73
2023/02/02 01:14:09;;;;;;;;;;;;;;;17.64;68.28;100077.94;2257789;78;52860;-73
2023/02/02 01:17:11;;;;;;;;;;;;;;;17.69;68.03;100084.89;2279335;77;51501;-74
2023/02/02 01:20:17;;;;;;;;;;;;;;;17.77;67.72;100075.39;2298837;77;51432;-73
2023/02/02 01:23:18;;;;;;;;;;;;;;;17.82;67.53;100068.16;2279608;77;51619;-73
2023/02/02 01:26:20;;;;;;;;;;;;;;;17.82;67.52;100056.94;2252028;77;51588;-73
2023/02/02 01:29:22;;;;;;;;;;;;;;;17.80;67.54;100063.02;2298250;77;51485;-73
2023/02/02 01:32:23;;;;;;;;;;;;;;;17.79;67.59;100081.90;2283365;77;51700;-73
2023/02/02 01:35:25;;;;;;;;;;;;;;;17.76;67.66;100095.67;2301251;77;51526;-72
2023/02/02 01:38:26;;;;;;;;;;;;;;;17.71;67.92;100084.20;2247075;78;49606;-72
2023/02/02 01:41:28;;;;;;;;;;;;;;;17.69;68.16;100088.08;2249128;78;50515;-72
2023/02/02 01:44:48;;;;;;;;;;;;;;;17.66;68.36;100091.14;2240342;79;51527;-72
2023/02/02 01:47:51;;;;;;;;;;;;;;;17.64;68.31;100076.60;2268171;77;51606;-73
2023/02/02 01:53:56;;;;;;;;;;;;;;;17.64;68.30;100068.06;2234686;78;22324;-73
2023/02/02 01:57:06;;;;;;;;;;;;;;;17.71;68.09;100072.67;2248259;77;50267;-73
2023/02/02 02:00:08;;;;;;;;;;;;;;;17.78;67.79;100075.73;2255102;77;51578;-73
2023/02/02 02:03:14;;;;;;;;;;;;;;;17.81;67.65;100083.91;2212705;79;52401;-73
2023/02/02 02:06:17;;;;;;;;;;;;;;;17.81;67.62;100089.27;2239954;77;50748;-73
2023/02/02 02:09:18;;;;;;;;;;;;;;;17.77;67.64;100106.16;2259830;78;50429;-74
2023/02/02 02:12:20;;;;;;;;;;;;;;;17.75;67.71;100096.67;2259601;78;50352;-73
2023/02/02 02:19:01;;;;;;;;;;;;;;;17.63;68.22;100083.81;2260533;77;22777;-73
2023/02/02 02:29:09;;;;;;;;;;;;;;;17.58;68.56;100108.97;2199423;78;22480;-73
2023/02/02 02:32:19;;;;;;;;;;;;;;;17.60;68.53;100114.95;2278677;77;51591;-73
2023/02/02 02:35:28;;;;;;;;;;;;;;;17.64;68.25;100114.88;2266720;78;51399;-73
2023/02/02 02:38:31;;;;;;;;;;;;;;;17.74;67.96;100115.09;2269767;77;50419;-73
2023/02/02 02:41:35;;;;;;;;;;;;;;;17.77;67.76;100117.38;2296892;77;50651;-73
2023/02/02 02:44:37;;;;;;;;;;;;;;;17.78;67.83;100121.73;2298779;77;51481;-73
2023/02/02 02:47:38;;;;;;;;;;;;;;;17.77;67.81;100130.77;2298680;77;52172;-72
2023/02/02 02:50:40;;;;;;;;;;;;;;;17.73;67.87;100132.17;2274406;77;51512;-73
2023/02/02 02:53:41;;;;;;;;;;;;;;;17.70;67.97;100140.08;2285299;77;50930;-72
2023/02/02 02:56:53;;;;;;;;;;;;;;;17.66;68.19;100139.30;2266864;77;51479;-72
2023/02/02 03:00:15;;;;;;;;;;;;;;;17.61;68.36;100153.23;2279824;77;50375;-73
2023/02/02 03:03:21;;;;;;;;;;;;;;;17.61;68.38;100145.21;2270697;77;50285;-73
2023/02/02 03:06:23;;;;;;;;;;;;;;;17.59;68.41;100142.71;2264109;76;51601;-73
2023/02/02 03:09:25;;;;;;;;;;;;;;;17.58;68.53;100140.25;2276787;77;50433;-73
2023/02/02 03:12:27;;;;;;;;;;;;;;;17.62;68.40;100146.86;2296714;77;51495;-73
2023/02/02 03:15:29;;;;;;;;;;;;;;;17.67;68.12;100136.93;2302960;77;51514;-73
2023/02/02 03:18:31;;;;;;;;;;;;;;;17.75;67.78;100152.37;2302128;77;51581;-73
2023/02/02 03:21:32;;;;;;;;;;;;;;;17.78;67.70;100162.70;2283089;77;51031;-74
2023/02/02 03:24:34;;;;;;;;;;;;;;;17.78;67.63;100168.56;2299265;77;50756;-73
2023/02/02 03:27:36;;;;;;;;;;;;;;;17.76;67.75;100167.92;2298781;77;50726;-73
2023/02/02 03:30:38;;;;;;;;;;;;;;;17.73;67.87;100191.05;2288234;77;50291;-73
2023/02/02 03:33:40;;;;;;;;;;;;;;;17.69;68.00;100187.90;2287550;77;51583;-74
2023/02/02 03:36:41;;;;;;;;;;;;;;;17.62;68.25;100193.19;2266592;77;50248;-74
2023/02/02 03:39:43;;;;;;;;;;;;;;;17.63;68.26;100196.17;2269823;77;50497;-73
2023/02/02 03:42:44;;;;;;;;;;;;;;;17.66;68.18;100206.19;2270195;78;50380;-73
2023/02/02 03:45:46;;;;;;;;;;;;;;;17.63;68.40;100213.56;2249916;78;51857;-73
2023/02/02 03:48:47;;;;;;;;;;;;;;;17.61;68.43;100220.94;2266613;78;51416;-73
2023/02/02 03:51:49;;;;;;;;;;;;;;;17.63;68.37;100228.28;2279474;77;51519;-73
2023/02/02 03:54:51;;;;;;;;;;;;;;;17.69;68.17;100229.38;2282337;77;52552;-73
2023/02/02 03:57:52;;;;;;;;;;;;;;;17.76;67.81;100239.66;2268823;78;52433;-74
2023/02/02 04:00:54;;;;;;;;;;;;;;;17.77;67.65;100246.66;2244245;77;50732;-73
2023/02/02 04:03:56;;;;;;;;;;;;;;;17.78;67.50;100251.01;2273353;77;50368;-73
2023/02/02 04:07:00;;;;;;;;;;;;;;;17.76;67.58;100264.25;2268306;77;51388;-73
2023/02/02 04:10:03;;;;;;;;;;;;;;;17.74;67.71;100259.59;2269496;77;52673;-73
2023/02/02 04:13:04;;;;;;;;;;;;;;;17.70;67.83;100276.54;2266457;77;51420;-72
2023/02/02 04:16:06;;;;;;;;;;;;;;;17.64;68.12;100271.39;2269179;78;50298;-74
2023/02/02 04:19:07;;;;;;;;;;;;;;;17.60;68.40;100280.01;2271998;77;51573;-74
2023/02/02 04:22:09;;;;;;;;;;;;;;;17.59;68.22;100288.52;2283402;77;51070;-74
2023/02/02 04:25:11;;;;;;;;;;;;;;;17.54;68.44;100310.98;2270552;78;51455;-74
2023/02/02 04:28:12;;;;;;;;;;;;;;;17.55;68.51;100307.30;2268549;77;51487;-73
2023/02/02 04:31:15;;;;;;;;;;;;;;;17.59;68.30;100309.92;2284218;77;50261;-74
2023/02/02 04:34:17;;;;;;;;;;;;;;;17.65;68.02;100315.06;2245228;78;51768;-72
2023/02/02 04:37:18;;;;;;;;;;;;;;;17.70;67.71;100321.17;2266559;78;51568;-73
2023/02/02 04:40:20;;;;;;;;;;;;;;;17.75;67.55;100321.45;2265054;78;51540;-73
2023/02/02 04:43:21;;;;;;;;;;;;;;;17.73;67.56;100327.00;2261605;78;51474;-74
2023/02/02 04:46:24;;;;;;;;;;;;;;;17.71;67.72;100326.86;2245492;78;52330;-73
2023/02/02 04:49:26;;;;;;;;;;;;;;;17.68;67.84;100335.27;2248028;78;51608;-74
2023/02/02 04:52:28;;;;;;;;;;;;;;;17.63;67.93;100336.64;2266960;77;52282;-73
2023/02/02 04:55:29;;;;;;;;;;;;;;;17.60;68.08;100343.70;2266773;78;50750;-74
2023/02/02 04:58:31;;;;;;;;;;;;;;;17.58;68.26;100344.90;2244165;78;51072;-74
2023/02/02 05:01:33;;;;;;;;;;;;;;;17.57;68.15;100356.11;2278589;77;50246;-74
2023/02/02 05:04:34;;;;;;;;;;;;;;;17.56;68.32;100357.62;2298644;77;50688;-74
2023/02/02 05:07:36;;;;;;;;;;;;;;;17.56;68.31;100361.12;2302971;77;51586;-74
2023/02/02 05:10:40;;;;;;;;;;;;;;;17.58;68.24;100368.46;2294322;77;51748;-74
2023/02/02 05:13:43;;;;;;;;;;;;;;;17.64;67.98;100379.76;2298376;77;51549;-73
2023/02/02 05:16:46;;;;;;;;;;;;;;;17.71;67.58;100393.25;2298498;77;51449;-73
2023/02/02 05:19:47;;;;;;;;;;;;;;;17.73;67.48;100398.43;2298833;77;50771;-75
2023/02/02 05:22:49;;;;;;;;;;;;;;;17.72;67.46;100400.25;2288680;77;50715;-74
2023/02/02 05:25:51;;;;;;;;;;;;;;;17.72;67.53;100412.80;2245534;78;51426;-74
2023/02/02 05:28:53;;;;;;;;;;;;;;;17.68;67.67;100418.22;2266729;78;51533;-74
2023/02/02 05:31:55;;;;;;;;;;;;;;;17.64;67.83;100415.05;2263247;77;51511;-73
2023/02/02 05:34:56;;;;;;;;;;;;;;;17.59;67.95;100423.62;2283214;77;51091;-73
2023/02/02 05:37:58;;;;;;;;;;;;;;;17.58;68.08;100425.98;2283346;77;51401;-74
2023/02/02 05:41:01;;;;;;;;;;;;;;;17.58;68.00;100425.98;2274432;77;50423;-74
2023/02/02 05:44:02;;;;;;;;;;;;;;;17.57;68.11;100432.36;2266498;78;50626;-74
2023/02/02 05:47:04;;;;;;;;;;;;;;;17.56;68.27;100445.91;2245328;78;51672;-73
2023/02/02 05:50:08;;;;;;;;;;;;;;;17.59;68.04;100451.71;2274368;77;50396;-73
2023/02/02 05:53:10;;;;;;;;;;;;;;;17.67;67.74;100450.80;2267392;77;51480;-74
2023/02/02 05:56:12;;;;;;;;;;;;;;;17.72;67.57;100460.45;2266599;78;51517;-73
2023/02/02 05:59:13;;;;;;;;;;;;;;;17.75;67.20;100458.78;2244007;78;51138;-73
2023/02/02 06:02:15;;;;;;;;;;;;;;;17.76;66.95;100455.59;2270426;77;51431;-73
2023/02/02 06:05:16;;;;;;;;;;;;;;;17.72;66.84;100464.47;2245464;78;53137;-73
2023/02/02 06:08:18;;;;;;;;;;;;;;;17.70;66.76;100477.70;2279820;77;50246;-73
2023/02/02 06:11:19;;;;;;;;;;;;;;;17.66;66.88;100479.92;2282304;77;50393;-72
2023/02/02 06:14:21;;;;;;;;;;;;;;;17.63;66.99;100478.95;2271922;77;54473;-72
2023/02/02 06:17:23;;;;;;;;;;;;;;;17.56;67.08;100484.19;2305092;77;50273;-73
2023/02/02 06:20:24;;;;;;;;;;;;;;;17.50;67.37;100492.11;2282988;77;50414;-73
2023/02/02 06:23:26;;;;;;;;;;;;;;;17.49;67.42;100499.28;2276802;77;50713;-73
2023/02/02 06:26:27;;;;;;;;;;;;;;;17.52;67.19;100502.96;2266598;78;50752;-74
2023/02/02 06:29:29;;;;;;;;;;;;;;;17.58;66.98;100510.25;2266555;78;51473;-74
2023/02/02 06:32:31;;;;;;;;;;;;;;;17.63;66.70;100513.23;2268144;77;50371;-73
2023/02/02 06:35:33;;;;;;;;;;;;;;;17.71;66.31;100516.85;2295910;77;51056;-74
2023/02/02 06:38:34;;;;;;;;;;;;;;;17.76;66.06;100522.50;2306972;77;50718;-73
2023/02/02 06:41:36;;;;;;;;;;;;;;;17.76;65.98;100526.51;2241730;77;51514;-74
2023/02/02 06:44:37;;;;;;;;;;;;;;;17.75;65.87;100528.84;2265774;77;51551;-73
2023/02/02 06:47:39;;;;;;;;;;;;;;;17.74;65.89;100537.38;2255326;78;51785;-74
2023/02/02 06:50:40;;;;;;;;;;;;;;;17.72;65.94;100534.05;2258690;78;51475;-75
2023/02/02 06:53:42;;;;;;;;;;;;;;;17.70;66.03;100545.46;2237500;78;50402;-76
2023/02/02 06:56:45;;;;;;;;;;;;;;;17.68;66.02;100546.14;2238010;78;51511;-75
2023/02/02 06:59:47;;;;;;;;;;;;;;;17.63;66.42;100559.22;2262379;77;51504;-75
2023/02/02 07:02:48;;;;;;;;;;;;;;;17.59;66.85;100566.76;2279557;77;52200;-72
2023/02/02 07:05:50;;;;;;;;;;;;;;;17.59;66.66;100569.43;2266765;77;51423;-73
2023/02/02 07:08:51;;;;;;;;;;;;;;;17.64;66.51;100574.25;2273424;77;51551;-73
2023/02/02 07:11:53;;;;;;;;;;;;;;;17.74;66.12;100574.02;2285306;77;50083;-73
2023/02/02 07:14:55;;;;;;;;;;;;;;;17.83;65.73;100579.17;2237664;77;51487;-74
2023/02/02 07:17:56;;;;;;;;;;;;;;;17.85;65.57;100589.67;2273051;77;50658;-75
2023/02/02 07:20:59;;;;;;;;;;;;;;;17.85;65.50;100584.33;2271595;77;51332;-74
2023/02/02 07:24:01;;;;;;;;;;;;;;;17.84;65.42;100599.55;2275217;77;51061;-75
2023/02/02 07:27:03;;;;;;;;;;;;;;;17.79;65.61;100609.11;2285622;77;50455;-74
2023/02/02 07:30:06;;;;;;;;;;;;;;;17.75;65.63;100619.34;2258605;78;51464;-74
2023/02/02 07:33:07;;;;;;;;;;;;;;;17.72;65.83;100620.19;2237379;78;50451;-75
2023/02/02 07:36:10;;;;;;;;;;;;;;;17.66;66.09;100624.93;2208574;78;49542;-73
2023/02/02 07:39:11;;;;;;;;;;;;;;;17.58;66.67;100630.66;2260650;77;50493;-74
2023/02/02 07:42:14;;;;;;;;;;;;;;;17.59;66.54;100628.30;2261281;78;50346;-74
2023/02/02 07:45:15;;;;;;;;;;;;;;;17.60;66.37;100631.31;2259061;77;51598;-73
2023/02/02 07:48:17;;;;;;;;;;;;;;;17.68;66.10;100634.95;2226264;77;51969;-74
2023/02/02 07:51:19;;;;;;;;;;;;;;;17.78;65.72;100642.25;2261199;77;51411;-74
2023/02/02 07:54:20;;;;;;;;;;;;;;;17.84;65.55;100644.23;2253185;78;50723;-73
2023/02/02 07:57:22;;;;;;;;;;;;;;;17.84;65.44;100646.40;2302743;76;51442;-73
2023/02/02 08:00:24;;;;;;;;;;;;;;;17.85;65.41;100657.93;2251455;78;51512;-74
2023/02/02 08:03:25;;;;;;;;;;;;;;;17.82;65.49;100658.29;2263368;77;50773;-73
2023/02/02 08:06:28;;;;;;;;;;;;;;;17.80;65.44;100662.50;2243445;77;50711;-74
2023/02/02 08:09:31;;;;;;;;;;;;;;;17.76;65.48;100673.19;2290590;77;51594;-73
2023/02/02 08:12:33;;;;;;;;;;;;;;;17.75;65.62;100682.72;2256217;77;49633;-73
2023/02/02 08:15:36;;;;;;;;;;;;;;;17.71;65.70;100682.77;2296456;77;50358;-73
2023/02/02 08:18:38;;;;;;;;;;;;;;;17.64;66.22;100690.65;2284400;77;50704;-73
2023/02/02 08:21:39;;;;;;;;;;;;;;;17.63;66.09;100694.34;2279247;77;50656;-75
2023/02/02 08:24:41;;;;;;;;;;;;;;;17.72;65.81;100707.99;2243042;78;50923;-73
2023/02/02 08:27:43;;;;;;;;;;;;;;;17.70;66.26;100704.69;2278018;76;50232;-74
2023/02/02 08:30:44;;;;;;;;;;;;;;;17.71;66.82;100707.67;2299868;77;50257;-74
2023/02/02 08:33:46;;;;;;;;;;;;;;;17.72;66.79;100702.64;2294898;76;50295;-74
2023/02/02 08:36:48;;;;;;;;;;;;;;;17.75;66.72;100712.16;2268260;77;50231;-74
2023/02/02 08:39:50;;;;;;;;;;;;;;;17.75;66.65;100712.16;2257563;77;50883;-73
2023/02/02 08:42:53;;;;;;;;;;;;;;;17.76;66.63;100715.19;2275949;76;50025;-74
2023/02/02 08:45:55;;;;;;;;;;;;;;;17.76;66.57;100719.20;2270003;77;51512;-74
2023/02/02 08:48:57;;;;;;;;;;;;;;;17.74;66.59;100707.31;2249924;77;50126;-74
2023/02/02 08:51:58;;;;;;;;;;;;;;;17.74;66.55;100719.36;2294326;77;50282;-74
2023/02/02 08:55:00;;;;;;;;;;;;;;;17.76;66.56;100717.86;2304134;76;50395;-74
2023/02/02 08:58:01;;;;;;;;;;;;;;;17.79;66.55;100718.36;2302526;77;50433;-72
2023/02/02 09:01:05;;;;;;;;;;;;;;;17.79;66.63;100717.02;2256016;77;51189;-74
2023/02/02 09:04:07;;;;;;;;;;;;;;;17.82;66.56;100726.55;2295981;77;51531;-73
2023/02/02 09:07:09;;;;;;;;;;;;;;;17.82;66.47;100731.39;2292045;77;50808;-74
2023/02/02 09:10:10;;;;;;;;;;;;;;;17.81;66.41;100735.08;2268117;78;51479;-74
2023/02/02 09:13:12;;;;;;;;;;;;;;;17.82;66.43;100745.28;2266623;78;51517;-74
2023/02/02 09:16:14;;;;;;;;;;;;;;;17.81;66.34;100751.66;2270088;77;51413;-72
2023/02/02 09:19:16;;;;;;;;;;;;;;;17.82;66.28;100747.95;2278730;77;51468;-73
2023/02/02 09:22:18;;;;;;;;;;;;;;;17.82;66.33;100755.98;2245303;77;50323;-72
2023/02/02 09:25:20;;;;;;;;;;;;;;;17.82;66.25;100764.02;2263127;77;49674;-73
2023/02/02 09:28:21;;;;;;;;;;;;;;;17.82;66.20;100764.84;2278546;76;50423;-74
2023/02/02 09:31:23;;;;;;;;;;;;;;;17.83;66.26;100768.38;2273255;77;50343;-73
2023/02/02 09:34:24;;;;;;;;;;;;;;;17.86;66.24;100771.20;2300903;77;50228;-73
2023/02/02 09:37:26;;;;;;;;;;;;;;;17.86;66.16;100788.09;2291025;77;50418;-73
2023/02/02 09:40:29;;;;;;;;;;;;;;;17.86;66.13;100778.73;2292069;77;51445;-73
2023/02/02 09:43:40;;;;;;;;;;;;;;;17.86;66.08;100800.14;2293753;77;51554;-73
2023/02/02 09:46:43;;;;;;;;;;;;;;;17.87;66.03;100802.31;2289149;77;50712;-75
2023/02/02 09:49:49;;;;;;;;;;;;;;;17.87;66.01;100796.95;2253895;77;50138;-73
2023/02/02 09:53:01;;;;;;;;;;;;;;;17.86;65.91;100813.53;2284698;77;50433;-72
2023/02/02 09:56:04;;;;;;;;;;;;;;;17.85;65.91;100819.87;2288887;76;51553;-72
2023/02/02 09:59:05;;;;;;;;;;;;;;;17.84;65.86;100809.67;2287988;77;50818;-71
2023/02/02 10:02:09;;;;;;;;;;;;;;;17.84;65.89;100816.87;2262592;77;52678;-71
2023/02/02 10:05:15;;;;;;;;;;;;;;;17.84;66.03;100811.02;2294739;77;51533;-72
2023/02/02 10:08:36;;;;;;;;;;;;;;;17.84;65.95;100819.05;2269961;77;50811;-74
2023/02/02 10:11:42;;;;;;;;;;;;;;;17.86;65.93;100812.19;2293221;77;52465;-73
2023/02/02 10:15:01;;;;;;;;;;;;;;;17.89;65.87;100831.91;2249271;78;52707;-72
2023/02/02 10:18:07;;;;;;;;;;;;;;;17.88;65.83;100824.91;2266756;78;51530;-72
2023/02/02 10:21:13;;;;;;;;;;;;;;;17.87;65.81;100820.54;2285768;77;50408;-72
2023/02/02 10:24:16;;;;;;;;;;;;;;;17.87;65.79;100821.88;2294180;77;51606;-74
2023/02/02 10:27:19;;;;;;;;;;;;;;;17.86;65.74;100825.58;2254838;78;51760;-74
2023/02/02 10:30:22;;;;;;;;;;;;;;;17.85;65.69;100831.91;2270651;77;51523;-73
2023/02/02 10:33:25;;;;;;;;;;;;;;;17.83;65.71;100829.44;2276640;77;51633;-73
2023/02/02 10:36:38;;;;;;;;;;;;;;;17.83;65.71;100841.48;2278953;77;51455;-73
2023/02/02 10:39:41;;;;;;;;;;;;;;;17.84;65.72;100832.94;2274462;77;51268;-72
2023/02/02 10:46:23;;;;;;;;;;;;;;;17.90;65.56;100852.31;2273911;77;22427;-73
2023/02/02 10:49:33;;;;;;;;;;;;;;;17.89;65.72;100841.28;2273797;77;50792;-74
2023/02/02 10:52:33;;;;;;;;;;;;;;;17.91;65.62;100854.00;2266266;78;22451;-72
2023/02/02 10:55:41;;;;;;;;;;;;;;;17.91;65.54;100854.00;2268268;77;50686;-73
2023/02/02 10:58:50;;;;;;;;;;;;;;;17.91;65.46;100852.66;2276660;77;22872;-74
2023/02/02 11:01:51;;;;;;;;;;;;;;;17.87;65.45;100850.49;2267202;77;52746;-76
2023/02/02 11:08:16;;;;;;;;;;;;;;;17.80;65.54;100867.73;2276189;77;21769;-74
2023/02/02 11:11:21;;;;;;;;;;;;;;;17.76;65.43;100866.40;2293462;77;50391;-74
2023/02/02 11:14:30;;;;;;;;;;;;;;;17.71;65.50;100876.78;2305609;77;52067;-75
2023/02/02 11:17:32;;;;;;;;;;;;;;;17.70;65.07;100879.11;2262060;78;52604;-74
2023/02/02 11:20:37;;;;;;;;;;;;;;;17.66;63.68;100874.61;2268271;77;50711;-73
2023/02/02 11:23:37;;;;;;;;;;;;;;;17.61;58.70;100887.16;2267927;78;22348;-73
2023/02/02 11:26:41;;;;;;;;;;;;;;;17.58;58.54;100878.66;2269312;77;50760;-73
2023/02/02 11:29:44;;;;;;;;;;;;;;;17.69;58.82;100889.49;2252108;77;51337;-74
2023/02/02 11:32:48;;;;;;;;;;;;;;;17.77;59.01;100900.17;2287308;77;50266;-74
2023/02/02 11:35:50;;;;;;;;;;;;;;;17.84;59.00;100899.34;2271346;77;22950;-74
2023/02/02 11:38:56;;;;;;;;;;;;;;;17.85;59.34;100897.50;2287711;77;50754;-74
2023/02/02 11:42:06;;;;;;;;;;;;;;;17.91;59.39;100902.18;2259067;78;51358;-73
2023/02/02 11:45:09;;;;;;;;;;;;;;;17.95;59.51;100903.48;2266663;78;50687;-73
2023/02/02 11:48:18;;;;;;;;;;;;;;;17.95;59.69;100914.20;2267174;78;50740;-74
2023/02/02 11:51:23;;;;;;;;;;;;;;;17.94;59.89;100897.81;2289504;77;50862;-73
2023/02/02 11:54:28;;;;;;;;;;;;;;;17.96;59.94;100915.89;2260509;77;51792;-74
2023/02/02 11:57:30;;;;;;;;;;;;;;;17.90;60.22;100913.05;2280921;77;51724;-74
2023/02/02 12:00:31;;;;;;;;;;;;;;;17.97;60.19;100923.41;2267991;78;50845;-74
2023/02/02 12:03:34;;;;;;;;;;;;;;;17.93;60.35;100929.63;2267603;78;51412;-74
2023/02/02 12:06:36;;;;;;;;;;;;;;;17.87;60.67;100920.92;2244188;78;51280;-74
2023/02/02 12:09:38;;;;;;;;;;;;;;;17.79;61.01;100927.61;2270160;77;50531;-74
2023/02/02 12:12:47;;;;;;;;;;;;;;;17.74;61.28;100934.80;2268447;77;51598;-74
2023/02/02 12:15:53;;;;;;;;;;;;;;;17.68;62.03;100938.69;2287243;77;51675;-75
2023/02/02 12:18:57;;;;;;;;;;;;;;;17.66;62.86;100951.39;2250030;78;51134;-73
2023/02/02 12:22:03;;;;;;;;;;;;;;;17.66;62.97;100956.73;2268207;78;50557;-73
2023/02/02 12:25:09;;;;;;;;;;;;;;;17.67;63.09;100965.09;2267835;77;50431;-73
2023/02/02 12:28:29;;;;;;;;;;;;;;;17.63;63.29;100977.48;2296667;77;51470;-74
2023/02/02 12:31:41;;;;;;;;;;;;;;;17.60;63.11;100972.47;2304084;76;51049;-74
2023/02/02 12:34:44;;;;;;;;;;;;;;;17.59;63.14;100994.03;2302305;76;50291;-74
2023/02/02 12:38:02;;;;;;;;;;;;;;;17.54;63.01;100991.85;2299205;77;50422;-75
2023/02/02 12:41:06;;;;;;;;;;;;;;;17.52;63.47;100986.33;2302296;76;51426;-75
2023/02/02 12:44:15;;;;;;;;;;;;;;;17.56;62.98;100972.97;2278048;77;52492;-75
2023/02/02 12:47:35;;;;;;;;;;;;;;;17.63;62.52;100971.30;2302493;76;51444;-75
2023/02/02 12:50:48;;;;;;;;;;;;;;;17.78;62.02;100976.30;2268343;78;50555;-75
2023/02/02 12:53:57;;;;;;;;;;;;;;;17.88;61.68;100979.30;2267913;77;50849;-74
2023/02/02 12:57:00;;;;;;;;;;;;;;;17.90;61.60;100983.99;2265918;78;51751;-74
2023/02/02 13:00:03;;;;;;;;;;;;;;;17.86;61.77;100987.52;2293724;77;50651;-74
2023/02/02 13:03:16;;;;;;;;;;;;;;;17.83;61.78;100990.55;2303608;76;50413;-75
2023/02/02 13:06:36;;;;;;;;;;;;;;;17.78;62.06;100991.52;2303841;76;50301;-75
2023/02/02 13:09:42;;;;;;;;;;;;;;;17.72;62.35;100989.50;2304213;76;51170;-74
2023/02/02 13:12:45;;;;;;;;;;;;;;;17.64;62.87;100993.02;2296206;77;50459;-74
2023/02/02 13:15:48;;;;;;;;;;;;;;;17.59;63.11;100997.53;2302306;77;50842;-74
2023/02/02 13:18:57;;;;;;;;;;;;;;;17.58;63.36;100995.05;2302997;77;51480;-73
2023/02/02 13:21:58;;;;;;;;;;;;;;;17.59;63.41;101005.56;2273042;78;50917;-73
2023/02/02 13:25:01;;;;;;;;;;;;;;;17.61;63.12;101018.78;2260686;77;50756;-73
2023/02/02 13:28:03;;;;;;;;;;;;;;;17.62;63.08;101023.98;2304533;77;51535;-73
2023/02/02 13:31:06;;;;;;;;;;;;;;;17.71;62.75;101033.34;2284427;77;50911;-73
2023/02/02 13:34:15;;;;;;;;;;;;;;;17.66;62.88;101036.52;2246669;78;52841;-73
2023/02/02 13:37:18;;;;;;;;;;;;;;;17.67;63.48;101048.88;2270369;78;50067;-73
2023/02/02 13:40:33;;;;;;;;;;;;;;;17.68;63.59;101056.43;2268302;77;50680;-72
2023/02/02 13:43:40;;;;;;;;;;;;;;;17.68;63.47;101060.45;2267616;78;50822;-73
2023/02/02 13:46:46;;;;;;;;;;;;;;;17.64;63.53;101066.11;2245510;78;50261;-72
2023/02/02 13:49:49;;;;;;;;;;;;;;;17.62;63.48;101069.47;2286267;77;52126;-73
2023/02/02 13:52:53;;;;;;;;;;;;;;;17.58;63.69;101081.50;2301720;77;51468;-72
2023/02/02 13:55:56;;;;;;;;;;;;;;;17.57;63.82;101069.13;2282082;76;51573;-73
2023/02/02 13:58:59;;;;;;;;;;;;;;;17.59;63.59;101079.14;2271297;77;51022;-73
2023/02/02 14:02:00;;;;;;;;;;;;;;;17.64;63.44;101083.50;2276053;77;51058;-71
2023/02/02 14:05:05;;;;;;;;;;;;;;;17.69;63.52;101088.87;2266989;78;51495;-74
2023/02/02 14:08:19;;;;;;;;;;;;;;;17.73;63.81;101103.09;2267136;78;22405;-72
2023/02/02 14:11:22;;;;;;;;;;;;;;;17.76;63.62;101099.25;2254521;78;51265;-72
2023/02/02 14:14:37;;;;;;;;;;;;;;;17.73;62.35;101115.14;2266728;78;50769;-72
2023/02/02 14:17:40;;;;;;;;;;;;;;;17.72;62.58;101122.81;2266784;78;51557;-74
2023/02/02 14:20:47;;;;;;;;;;;;;;;17.72;62.92;101121.98;2267546;77;51620;-72
2023/02/02 14:23:55;;;;;;;;;;;;;;;17.72;63.01;101139.38;2245304;77;52303;-74
2023/02/02 14:26:57;;;;;;;;;;;;;;;17.71;63.13;101142.56;2291543;76;50694;-75
2023/02/02 14:29:59;;;;;;;;;;;;;;;17.72;63.28;101146.07;2280013;77;50307;-74
2023/02/02 14:33:20;;;;;;;;;;;;;;;17.73;63.25;101151.78;2268578;77;50286;-77
2023/02/02 14:36:22;;;;;;;;;;;;;;;17.75;63.23;101164.47;2268219;78;52673;-76
2023/02/02 14:39:23;;;;;;;;;;;;;;;17.74;63.12;101168.16;2267872;77;50726;-74
2023/02/02 14:46:14;;;;;;;;;;;;;;;17.74;63.17;101178.87;2267253;78;22447;-74
2023/02/02 14:49:18;;;;;;;;;;;;;;;17.74;63.28;101187.73;2243850;78;52508;-74
2023/02/02 14:52:22;;;;;;;;;;;;;;;17.74;63.38;101201.62;2266598;78;51554;-75
2023/02/02 14:55:24;;;;;;;;;;;;;;;17.73;63.30;101204.80;2285731;77;51744;-74
2023/02/02 14:58:33;;;;;;;;;;;;;;;17.73;63.28;101208.81;2268892;77;51522;-75
2023/02/02 15:01:34;;;;;;;;;;;;;;;17.72;63.31;101217.00;2243600;78;51263;-73
2023/02/02 15:04:36;;;;;;;;;;;;;;;17.71;63.26;101231.39;2287553;77;50445;-75
2023/02/02 15:07:39;;;;;;;;;;;;;;;17.70;63.25;101236.39;2302415;77;50226;-75
2023/02/02 15:10:56;;;;;;;;;;;;;;;17.72;63.17;101240.58;2272575;76;50300;-75
2023/02/02 15:14:05;;;;;;;;;;;;;;;17.74;63.04;101245.27;2268072;77;22478;-75
2023/02/02 15:17:20;;;;;;;;;;;;;;;17.77;63.08;101251.63;2302946;76;22416;-75
2023/02/02 15:20:38;;;;;;;;;;;;;;;17.80;63.03;101257.20;2301688;77;50685;-74
2023/02/02 15:23:41;;;;;;;;;;;;;;;17.80;62.96;101261.21;2294068;76;51326;-75
2023/02/02 15:26:42;;;;;;;;;;;;;;;17.80;63.07;101270.11;2256638;76;51822;-75
2023/02/02 15:29:44;;;;;;;;;;;;;;;17.80;62.96;101279.95;2267353;77;51564;-76
2023/02/02 15:32:46;;;;;;;;;;;;;;;17.78;63.04;101280.09;2266808;78;51557;-76
2023/02/02 15:35:48;;;;;;;;;;;;;;;17.78;63.00;101289.97;2278279;77;50630;-77
2023/02/02 15:38:50;;;;;;;;;;;;;;;17.77;63.03;101296.30;2271286;77;52336;-77
2023/02/02 15:42:51;;;;;;;;;;;;;;;17.76;62.99;101307.52;2296450;77;49823;-76
2023/02/02 15:44:55;;;;;;;;;;;;;;;17.76;63.02;101308.03;2301204;77;22387;-76
2023/02/02 15:47:58;;;;;;;;;;;;;;;17.77;63.08;101309.69;2268216;78;51516;-77
2023/02/02 15:51:01;;;;;;;;;;;;;;;17.79;63.03;101319.74;2242793;78;51727;-73
2023/02/02 15:54:03;;;;;;;;;;;;;;;17.81;62.87;101333.84;2270362;77;50766;-73
2023/02/02 15:57:06;;;;;;;;;;;;;;;17.82;62.81;101348.39;2262436;77;51458;-73
2023/02/02 16:00:25;;;;;;;;;;;;;;;17.82;62.73;101344.88;2263486;78;50703;-74
2023/02/02 16:03:29;;;;;;;;;;;;;;;17.82;62.76;101344.88;2219057;78;52730;-73
2023/02/02 16:06:33;;;;;;;;;;;;;;;17.81;62.77;101367.30;2267104;77;50469;-74